createdAt,value
2023-02-17T00:00:55.711Z,66.16
2023-02-17T00:03:23.189Z,66.07
2023-02-17T00:05:51.165Z,65.72
2023-02-17T00:08:19.194Z,65.85
2023-02-17T00:10:45.887Z,66.11
2023-02-17T00:13:12.564Z,65.58
2023-02-17T00:15:39.902Z,65.60
2023-02-17T00:18:06.698Z,65.68
2023-02-17T00:20:33.477Z,66.10
2023-02-17T00:23:00.183Z,65.95
2023-02-17T00:25:26.899Z,65.81
2023-02-17T00:27:53.635Z,65.83
2023-02-17T00:30:20.466Z,65.80
2023-02-17T00:32:47.223Z,65.76
2023-02-17T00:35:14.555Z,65.77
2023-02-17T00:37:45.622Z,65.96
2023-02-17T00:40:13.762Z,66.30
2023-02-17T00:42:40.763Z,66.36
2023-02-17T00:45:08.267Z,66.28
2023-02-17T00:47:34.931Z,66.16
2023-02-17T00:50:01.740Z,66.25
2023-02-17T00:52:28.511Z,66.11
2023-02-17T00:54:55.266Z,66.02
2023-02-17T00:57:22.001Z,66.26
2023-02-17T00:59:48.640Z,66.20
2023-02-17T01:02:15.341Z,66.56
2023-02-17T01:04:42.250Z,66.47
2023-02-17T01:07:09.512Z,66.47
2023-02-17T01:09:36.770Z,66.25
2023-02-17T01:12:04.002Z,66.18
2023-02-17T01:14:31.695Z,66.45
2023-02-17T01:16:58.488Z,67.00
2023-02-17T01:19:26.326Z,67.03
2023-02-17T01:21:53.422Z,66.84
2023-02-17T01:24:20.075Z,67.03
2023-02-17T01:26:46.760Z,67.07
2023-02-17T01:29:13.646Z,66.90
2023-02-17T01:31:41.096Z,67.00
2023-02-17T01:34:12.032Z,67.55
2023-02-17T01:36:39.206Z,67.47
2023-02-17T01:39:06.072Z,67.68
2023-02-17T01:41:32.764Z,67.26
2023-02-17T01:44:09.690Z,67.07
2023-02-17T01:46:39.377Z,67.41
2023-02-17T01:49:17.852Z,66.91
2023-02-17T01:51:53.890Z,66.88
2023-02-17T01:54:30.747Z,67.05
2023-02-17T01:57:01.404Z,66.35
2023-02-17T01:59:29.759Z,66.71
2023-02-17T02:02:01.637Z,66.43
2023-02-17T02:04:31.963Z,66.64
2023-02-17T02:06:59.815Z,66.15
2023-02-17T02:09:41.641Z,66.38
2023-02-17T02:12:24.582Z,66.74
2023-02-17T02:14:52.889Z,66.44
2023-02-17T02:17:38.360Z,66.44
2023-02-17T02:20:32.859Z,66.43
2023-02-17T02:23:19.027Z,66.33
2023-02-17T02:26:16.978Z,66.77
2023-02-17T02:29:10.853Z,66.59
2023-02-17T02:31:50.467Z,66.55
2023-02-17T02:34:23.874Z,66.49
2023-02-17T02:36:54.262Z,66.62
2023-02-17T02:39:26.842Z,66.77
2023-02-17T02:41:58.488Z,66.97
2023-02-17T02:44:25.425Z,66.91
2023-02-17T02:47:42.408Z,66.73
2023-02-17T02:50:14.263Z,66.58
2023-02-17T02:52:56.898Z,66.77
2023-02-17T02:55:30.852Z,67.07
2023-02-17T02:58:13.901Z,67.28
2023-02-17T03:01:03.965Z,67.17
2023-02-17T03:03:47.256Z,66.89
2023-02-17T03:06:40.431Z,66.82
2023-02-17T03:09:12.895Z,66.65
2023-02-17T03:11:42.127Z,66.94
2023-02-17T03:14:16.291Z,66.98
2023-02-17T03:16:46.680Z,67.09
2023-02-17T03:19:15.181Z,67.27
2023-02-17T03:21:49.187Z,67.31
2023-02-17T03:24:16.153Z,67.41
2023-02-17T03:26:43.437Z,67.06
2023-02-17T03:29:10.386Z,67.32
2023-02-17T03:31:37.684Z,67.16
2023-02-17T03:34:06.157Z,67.40
2023-02-17T03:36:33.630Z,67.37
2023-02-17T03:39:00.405Z,67.35
2023-02-17T03:41:27.571Z,67.15
2023-02-17T03:43:54.613Z,67.08
2023-02-17T03:46:21.490Z,67.10
2023-02-17T03:48:48.159Z,67.11
2023-02-17T03:51:19.367Z,67.59
2023-02-17T03:53:46.440Z,67.59
2023-02-17T03:56:14.381Z,67.65
2023-02-17T03:58:42.020Z,67.37
2023-02-17T04:01:10.794Z,67.34
2023-02-17T04:03:39.386Z,66.80
2023-02-17T04:06:08.019Z,66.90
2023-02-17T04:08:35.031Z,66.68
2023-02-17T04:11:04.215Z,66.63
2023-02-17T04:13:31.506Z,66.64
2023-02-17T04:15:58.907Z,66.59
2023-02-17T04:18:25.690Z,66.73
2023-02-17T04:20:54.386Z,66.81
2023-02-17T04:23:21.237Z,66.77
2023-02-17T04:25:48.406Z,66.72
2023-02-17T04:28:16.979Z,66.81
2023-02-17T04:30:48.572Z,66.64
2023-02-17T04:33:16.556Z,66.61
2023-02-17T04:35:43.424Z,66.64
2023-02-17T04:38:10.763Z,66.38
2023-02-17T04:40:38.232Z,66.36
2023-02-17T04:43:05.606Z,66.60
2023-02-17T04:45:32.372Z,66.70
2023-02-17T04:47:59.072Z,66.77
2023-02-17T04:50:25.622Z,66.70
2023-02-17T04:52:52.450Z,66.87
2023-02-17T04:55:19.305Z,66.90
2023-02-17T04:57:45.959Z,67.21
2023-02-17T05:00:12.747Z,67.23
2023-02-17T05:02:39.457Z,67.44
2023-02-17T05:05:06.299Z,67.52
2023-02-17T05:07:33.096Z,67.67
2023-02-17T05:09:59.769Z,67.42
2023-02-17T05:12:26.562Z,67.39
2023-02-17T05:14:53.114Z,67.31
2023-02-17T05:17:19.746Z,67.66
2023-02-17T05:19:46.401Z,67.57
2023-02-17T05:22:13.188Z,67.73
2023-02-17T05:24:39.810Z,67.83
2023-02-17T05:27:06.497Z,67.90
2023-02-17T05:29:33.132Z,67.80
2023-02-17T05:32:00.020Z,67.81
2023-02-17T05:34:27.073Z,68.18
2023-02-17T05:36:53.802Z,67.95
2023-02-17T05:39:23.029Z,68.07
2023-02-17T05:41:49.787Z,68.34
2023-02-17T05:44:16.439Z,68.32
2023-02-17T05:46:43.305Z,68.18
2023-02-17T05:49:10.528Z,68.26
2023-02-17T05:51:37.320Z,68.33
2023-02-17T05:54:04.452Z,68.61
2023-02-17T05:56:31.600Z,68.57
2023-02-17T05:58:58.590Z,68.56
2023-02-17T06:01:25.339Z,68.73
2023-02-17T06:03:51.927Z,68.81
2023-02-17T06:06:18.798Z,68.88
2023-02-17T06:08:45.558Z,68.80
2023-02-17T06:11:12.164Z,69.01
2023-02-17T06:13:38.961Z,68.95
2023-02-17T06:16:06.413Z,69.02
2023-02-17T06:18:33.450Z,69.12
2023-02-17T06:21:00.394Z,69.25
2023-02-17T06:23:28.081Z,69.02
2023-02-17T06:25:55.323Z,69.07
2023-02-17T06:28:22.066Z,68.95
2023-02-17T06:30:49.303Z,68.84
2023-02-17T06:33:16.065Z,68.80
2023-02-17T06:35:44.580Z,68.81
2023-02-17T06:38:11.392Z,68.89
2023-02-17T06:40:38.005Z,68.88
2023-02-17T06:43:06.993Z,69.26
2023-02-17T06:45:35.001Z,69.14
2023-02-17T06:48:01.883Z,69.05
2023-02-17T06:50:28.748Z,68.85
2023-02-17T06:52:55.415Z,69.11
2023-02-17T06:55:22.184Z,69.06
2023-02-17T06:57:48.855Z,69.23
2023-02-17T07:00:15.816Z,69.07
2023-02-17T07:02:42.599Z,68.89
2023-02-17T07:05:10.008Z,68.97
2023-02-17T07:07:36.794Z,68.49
2023-02-17T07:10:03.618Z,68.47
2023-02-17T07:12:30.450Z,68.40
2023-02-17T07:14:57.076Z,68.69
2023-02-17T07:17:24.552Z,68.53
2023-02-17T07:19:51.233Z,68.89
2023-02-17T07:22:17.924Z,68.91
2023-02-17T07:24:44.671Z,68.81
2023-02-17T07:27:11.423Z,68.75
2023-02-17T07:29:38.108Z,68.82
2023-02-17T07:32:04.875Z,68.71
2023-02-17T07:34:31.745Z,68.32
2023-02-17T07:36:58.527Z,68.31
2023-02-17T07:39:25.159Z,68.23
2023-02-17T07:41:51.909Z,68.14
2023-02-17T07:44:18.498Z,68.35
2023-02-17T07:46:45.288Z,68.62
2023-02-17T07:49:12.385Z,68.40
2023-02-17T07:51:39.066Z,68.63
2023-02-17T07:54:06.022Z,68.45
2023-02-17T07:56:33.833Z,68.45
2023-02-17T07:59:00.648Z,68.32
2023-02-17T08:01:27.274Z,68.15
2023-02-17T08:03:54.422Z,68.37
2023-02-17T08:06:23.975Z,68.03
2023-02-17T08:09:10.432Z,68.14
2023-02-17T08:11:56.299Z,68.14
2023-02-17T08:14:25.388Z,68.08
2023-02-17T08:16:52.851Z,67.90
2023-02-17T08:19:20.194Z,67.86
2023-02-17T08:21:47.566Z,67.79
2023-02-17T08:24:16.462Z,67.72
2023-02-17T08:26:43.351Z,67.82
2023-02-17T08:29:10.018Z,67.37
2023-02-17T08:31:37.283Z,67.67
2023-02-17T08:34:09.607Z,67.67
2023-02-17T08:36:39.395Z,67.23
2023-02-17T08:39:10.448Z,67.27
2023-02-17T08:41:38.905Z,67.41
2023-02-17T08:44:11.816Z,67.54
2023-02-17T08:46:39.185Z,67.64
2023-02-17T08:49:07.686Z,67.39
2023-02-17T08:51:35.145Z,67.18
2023-02-17T08:54:03.898Z,67.31
2023-02-17T08:56:31.102Z,67.04
2023-02-17T08:58:57.813Z,67.27
2023-02-17T09:01:24.985Z,67.29
2023-02-17T09:03:54.655Z,67.20
2023-02-17T09:06:21.602Z,67.14
2023-02-17T09:08:49.735Z,67.15
2023-02-17T09:11:19.855Z,66.97
2023-02-17T09:13:47.002Z,67.02
2023-02-17T09:16:14.349Z,66.47
2023-02-17T09:18:41.232Z,66.23
2023-02-17T09:21:11.643Z,66.13
2023-02-17T09:23:38.499Z,65.75
2023-02-17T09:26:07.928Z,66.00
2023-02-17T09:28:35.177Z,66.24
2023-02-17T09:31:20.506Z,66.40
2023-02-17T09:33:48.844Z,66.31
2023-02-17T09:36:18.628Z,66.17
2023-02-17T09:38:45.932Z,65.94
2023-02-17T09:41:37.947Z,65.69
2023-02-17T09:44:19.006Z,65.56
2023-02-17T09:47:05.733Z,65.37
2023-02-17T09:49:40.024Z,65.29
2023-02-17T09:52:38.858Z,65.15
2023-02-17T09:55:13.838Z,65.15
2023-02-17T09:58:03.417Z,65.15
2023-02-17T10:00:35.337Z,65.15
2023-02-17T10:03:43.233Z,64.86
2023-02-17T10:06:18.488Z,65.00
2023-02-17T10:08:53.709Z,64.76
2023-02-17T10:11:34.320Z,64.73
2023-02-17T10:14:17.864Z,64.56
2023-02-17T10:16:51.844Z,64.31
2023-02-17T10:19:29.571Z,64.47
2023-02-17T10:22:05.902Z,64.21
2023-02-17T10:24:32.707Z,64.17
2023-02-17T10:27:12.054Z,64.33
2023-02-17T10:30:20.833Z,64.19
2023-02-17T10:32:56.864Z,64.54
2023-02-17T10:35:46.927Z,64.13
2023-02-17T10:38:18.190Z,63.90
2023-02-17T10:40:49.842Z,64.26
2023-02-17T10:43:24.378Z,64.14
2023-02-17T10:45:51.602Z,63.71
2023-02-17T10:48:26.299Z,63.26
2023-02-17T10:50:57.795Z,63.16
2023-02-17T10:53:29.461Z,62.92
2023-02-17T10:56:12.095Z,62.51
2023-02-17T10:59:06.689Z,62.28
2023-02-17T11:01:34.030Z,61.92
2023-02-17T11:04:07.508Z,62.52
2023-02-17T11:06:52.385Z,62.24
2023-02-17T11:09:29.508Z,62.08
2023-02-17T11:12:15.028Z,61.90
2023-02-17T11:14:47.440Z,61.88
2023-02-17T11:17:21.135Z,61.42
2023-02-17T11:19:57.210Z,61.33
2023-02-17T11:22:45.253Z,61.53
2023-02-17T11:25:22.666Z,61.02
2023-02-17T11:28:15.238Z,60.40
2023-02-17T11:30:52.046Z,59.99
2023-02-17T11:33:40.582Z,60.04
2023-02-17T11:36:13.714Z,60.25
2023-02-17T11:38:40.421Z,60.15
2023-02-17T11:41:08.501Z,60.59
2023-02-17T11:43:37.890Z,60.26
2023-02-17T11:46:41.462Z,59.87
2023-02-17T11:49:23.321Z,59.62
2023-02-17T11:52:03.619Z,60.25
2023-02-17T11:54:43.079Z,60.53
2023-02-17T11:57:34.759Z,60.72
2023-02-17T12:00:22.780Z,59.70
2023-02-17T12:03:11.188Z,59.62
2023-02-17T12:05:54.659Z,59.59
2023-02-17T12:08:33.633Z,59.21
2023-02-17T12:11:16.930Z,59.03
2023-02-17T12:14:06.188Z,59.64
2023-02-17T12:17:01.877Z,59.46
2023-02-17T12:19:36.918Z,60.00
2023-02-17T12:22:45.581Z,59.51
2023-02-17T12:25:29.148Z,58.99
2023-02-17T12:28:08.229Z,59.34
2023-02-17T12:31:12.761Z,59.47
2023-02-17T12:33:48.836Z,60.03
2023-02-17T12:36:18.582Z,59.45
2023-02-17T12:38:52.338Z,58.82
2023-02-17T12:41:41.273Z,58.79
2023-02-17T12:44:18.632Z,58.95
2023-02-17T12:46:50.892Z,59.62
2023-02-17T12:49:25.323Z,59.26
2023-02-17T12:52:11.227Z,58.48
2023-02-17T12:54:56.014Z,58.28
2023-02-17T12:57:30.205Z,58.20
2023-02-17T12:59:58.787Z,58.27
2023-02-17T13:02:26.532Z,58.11
2023-02-17T13:05:01.708Z,58.31
2023-02-17T13:07:31.757Z,58.16
2023-02-17T13:09:58.779Z,59.32
2023-02-17T13:12:25.590Z,58.82
2023-02-17T13:14:57.714Z,58.56
2023-02-17T13:17:55.666Z,58.61
2023-02-17T13:20:38.769Z,58.89
2023-02-17T13:23:11.047Z,58.88
2023-02-17T13:25:38.261Z,58.68
2023-02-17T13:28:19.791Z,58.67
2023-02-17T13:30:48.848Z,58.59
2023-02-17T13:33:21.544Z,58.49
2023-02-17T13:35:49.430Z,58.53
2023-02-17T13:38:30.164Z,59.32
2023-02-17T13:41:04.481Z,58.38
2023-02-17T13:43:40.244Z,57.85
2023-02-17T13:46:08.110Z,57.86
2023-02-17T13:48:36.311Z,57.74
2023-02-17T13:51:09.952Z,57.56
2023-02-17T13:53:40.019Z,57.59
2023-02-17T13:56:10.768Z,57.58
2023-02-17T13:58:42.283Z,57.92
2023-02-17T14:01:16.894Z,57.85
2023-02-17T14:03:50.851Z,58.14
2023-02-17T14:06:41.068Z,58.10
2023-02-17T14:09:29.585Z,58.07
2023-02-17T14:11:57.572Z,58.14
2023-02-17T14:14:29.237Z,58.21
2023-02-17T14:17:02.090Z,58.65
2023-02-17T14:19:29.660Z,58.09
2023-02-17T14:21:56.343Z,58.06
2023-02-17T14:24:40.015Z,58.09
2023-02-17T14:27:08.951Z,58.17
2023-02-17T14:29:48.065Z,58.39
2023-02-17T14:32:27.060Z,58.29
2023-02-17T14:34:53.712Z,58.13
2023-02-17T14:37:25.049Z,58.31
2023-02-17T14:39:51.832Z,58.28
2023-02-17T14:42:18.623Z,58.54
2023-02-17T14:44:45.349Z,58.39
2023-02-17T14:47:12.074Z,58.53
2023-02-17T14:49:38.766Z,58.39
2023-02-17T14:52:31.946Z,58.65
2023-02-17T14:55:00.006Z,58.94
2023-02-17T14:57:27.863Z,58.82
2023-02-17T14:59:57.767Z,58.75
2023-02-17T15:02:25.736Z,58.61
2023-02-17T15:04:52.479Z,59.07
2023-02-17T15:07:19.525Z,58.69
2023-02-17T15:09:48.626Z,58.65
2023-02-17T15:12:21.847Z,58.93
2023-02-17T15:14:48.646Z,59.10
2023-02-17T15:17:16.022Z,59.24
2023-02-17T15:19:45.068Z,59.51
2023-02-17T15:22:15.054Z,59.66
2023-02-17T15:24:42.059Z,59.48
2023-02-17T15:27:14.674Z,59.52
2023-02-17T15:29:41.783Z,59.54
2023-02-17T15:32:20.281Z,59.66
2023-02-17T15:34:47.169Z,59.90
2023-02-17T15:37:13.817Z,60.03
2023-02-17T15:39:40.490Z,60.27
2023-02-17T15:42:13.682Z,60.33
2023-02-17T15:44:44.309Z,60.03
2023-02-17T15:47:17.388Z,60.30
2023-02-17T15:49:44.580Z,60.13
2023-02-17T15:52:13.973Z,60.00
2023-02-17T15:54:42.730Z,60.42
2023-02-17T15:57:21.115Z,60.36
2023-02-17T15:59:47.980Z,60.54
2023-02-17T16:02:23.458Z,60.54
2023-02-17T16:05:08.493Z,61.02
2023-02-17T16:07:36.375Z,60.79
2023-02-17T16:10:05.599Z,61.14
2023-02-17T16:12:32.911Z,61.24
2023-02-17T16:14:59.707Z,61.11
2023-02-17T16:17:27.078Z,61.26
2023-02-17T16:19:53.815Z,61.35
2023-02-17T16:22:20.509Z,61.70
2023-02-17T16:24:47.180Z,62.15
2023-02-17T16:27:16.346Z,61.95
2023-02-17T16:29:43.596Z,62.34
2023-02-17T16:32:13.521Z,62.42
2023-02-17T16:34:40.893Z,62.55
2023-02-17T16:37:18.068Z,62.75
2023-02-17T16:39:45.799Z,62.56
2023-02-17T16:42:14.879Z,62.74
2023-02-17T16:44:42.425Z,62.69
2023-02-17T16:47:19.651Z,63.23
2023-02-17T16:49:47.706Z,62.92
2023-02-17T16:52:26.662Z,62.99
2023-02-17T16:54:54.328Z,62.98
2023-02-17T16:57:21.649Z,63.04
2023-02-17T16:59:48.427Z,63.30
2023-02-17T17:02:15.233Z,63.16
2023-02-17T17:04:42.003Z,62.87
2023-02-17T17:07:13.402Z,63.32
2023-02-17T17:09:40.881Z,62.96
2023-02-17T17:12:07.948Z,63.35
2023-02-17T17:14:34.666Z,63.36
2023-02-17T17:17:02.346Z,63.21
2023-02-17T17:19:29.108Z,63.45
2023-02-17T17:21:55.856Z,63.56
2023-02-17T17:24:22.575Z,63.71
2023-02-17T17:26:51.332Z,63.90
2023-02-17T17:29:19.577Z,63.91
2023-02-17T17:31:46.669Z,63.76
2023-02-17T17:34:13.647Z,63.93
2023-02-17T17:36:43.462Z,64.31
2023-02-17T17:39:20.784Z,64.54
2023-02-17T17:41:47.980Z,64.00
2023-02-17T17:44:15.503Z,64.57
2023-02-17T17:46:43.622Z,64.20
2023-02-17T17:49:13.464Z,64.12
2023-02-17T17:51:40.915Z,64.18
2023-02-17T17:54:08.361Z,64.00
2023-02-17T17:56:38.953Z,64.00
2023-02-17T17:59:06.944Z,63.74
2023-02-17T18:01:34.149Z,63.67
2023-02-17T18:04:01.604Z,63.94
2023-02-17T18:06:37.490Z,64.33
2023-02-17T18:09:07.085Z,64.08
2023-02-17T18:11:35.478Z,64.17
2023-02-17T18:14:06.663Z,64.38
2023-02-17T18:16:35.197Z,64.29
2023-02-17T18:19:04.423Z,64.79
2023-02-17T18:21:31.085Z,64.45
2023-02-17T18:23:57.762Z,64.53
2023-02-17T18:26:24.517Z,64.10
2023-02-17T18:28:51.235Z,64.15
2023-02-17T18:31:19.339Z,63.93
2023-02-17T18:33:46.300Z,64.09
2023-02-17T18:36:16.432Z,64.11
2023-02-17T18:38:44.356Z,64.13
2023-02-17T18:41:24.221Z,64.15
2023-02-17T18:43:51.816Z,64.32
2023-02-17T18:46:19.345Z,64.40
2023-02-17T18:48:46.586Z,64.55
2023-02-17T18:51:15.286Z,64.69
2023-02-17T18:53:42.654Z,64.73
2023-02-17T18:56:14.666Z,64.80
2023-02-17T18:58:41.714Z,64.84
2023-02-17T19:01:18.428Z,64.80
2023-02-17T19:03:45.656Z,65.04
2023-02-17T19:06:16.312Z,65.06
2023-02-17T19:08:47.830Z,64.85
2023-02-17T19:11:16.476Z,64.95
2023-02-17T19:13:43.275Z,65.14
2023-02-17T19:16:16.316Z,64.92
2023-02-17T19:18:44.495Z,64.95
2023-02-17T19:21:12.056Z,65.04
2023-02-17T19:23:39.217Z,65.13
2023-02-17T19:26:07.788Z,65.15
2023-02-17T19:28:37.664Z,65.19
2023-02-17T19:31:16.887Z,65.14
2023-02-17T19:33:45.739Z,65.35
2023-02-17T19:36:16.115Z,65.38
2023-02-17T19:38:43.141Z,65.52
2023-02-17T19:41:11.725Z,65.70
2023-02-17T19:43:39.378Z,65.68
2023-02-17T19:46:06.708Z,65.68
2023-02-17T19:48:34.512Z,65.57
2023-02-17T19:51:04.986Z,65.45
2023-02-17T19:53:33.223Z,65.58
2023-02-17T19:56:27.258Z,65.67
2023-02-17T19:58:55.374Z,65.73
2023-02-17T20:01:24.068Z,65.61
2023-02-17T20:03:52.314Z,65.77
2023-02-17T20:06:21.903Z,65.95
2023-02-17T20:09:03.125Z,65.91
2023-02-17T20:11:32.021Z,66.25
2023-02-17T20:14:00.005Z,65.98
2023-02-17T20:16:28.163Z,66.05
2023-02-17T20:18:55.796Z,66.28
2023-02-17T20:21:28.233Z,66.22
2023-02-17T20:23:55.984Z,66.31
2023-02-17T20:26:26.669Z,66.25
2023-02-17T20:28:54.543Z,66.27
2023-02-17T20:31:21.956Z,66.42
2023-02-17T20:33:48.804Z,66.54
2023-02-17T20:36:15.700Z,66.77
2023-02-17T20:38:42.470Z,66.92
2023-02-17T20:41:14.099Z,66.78
2023-02-17T20:43:40.841Z,66.84
2023-02-17T20:46:08.271Z,66.76
2023-02-17T20:48:35.323Z,66.93
2023-02-17T20:51:04.232Z,66.89
2023-02-17T20:53:31.220Z,66.76
2023-02-17T20:55:57.956Z,66.75
2023-02-17T20:58:24.690Z,66.63
2023-02-17T21:00:51.539Z,66.64
2023-02-17T21:03:18.323Z,66.73
2023-02-17T21:05:45.676Z,66.60
2023-02-17T21:08:12.416Z,66.40
2023-02-17T21:10:40.848Z,66.52
2023-02-17T21:13:07.737Z,66.87
2023-02-17T21:15:34.939Z,67.02
2023-02-17T21:18:01.817Z,66.94
2023-02-17T21:20:28.595Z,67.15
2023-02-17T21:22:55.349Z,66.89
2023-02-17T21:25:22.270Z,67.03
2023-02-17T21:27:49.212Z,66.90
2023-02-17T21:30:16.099Z,66.99
2023-02-17T21:32:43.212Z,66.75
2023-02-17T21:35:11.217Z,66.51
2023-02-17T21:37:41.388Z,66.46
2023-02-17T21:40:09.626Z,66.65
2023-02-17T21:42:58.440Z,66.66
2023-02-17T21:45:26.088Z,66.36
2023-02-17T21:47:52.779Z,66.34
2023-02-17T21:50:23.407Z,66.48
2023-02-17T21:52:50.250Z,66.54
2023-02-17T21:55:16.977Z,66.49
2023-02-17T21:57:43.704Z,66.36
2023-02-17T22:00:11.318Z,66.59
2023-02-17T22:02:42.908Z,66.69
2023-02-17T22:05:11.228Z,67.20
2023-02-17T22:07:38.634Z,67.14
2023-02-17T22:10:10.188Z,66.88
2023-02-17T22:12:39.180Z,66.89
2023-02-17T22:15:07.360Z,67.00
2023-02-17T22:17:35.821Z,67.13
2023-02-17T22:20:05.179Z,67.28
2023-02-17T22:22:33.805Z,67.28
2023-02-17T22:25:01.690Z,67.24
2023-02-17T22:27:29.148Z,67.60
2023-02-17T22:29:56.946Z,67.55
2023-02-17T22:32:24.131Z,67.47
2023-02-17T22:34:51.105Z,67.66
2023-02-17T22:37:18.451Z,67.78
2023-02-17T22:39:45.733Z,67.75
2023-02-17T22:42:14.001Z,68.14
2023-02-17T22:44:41.297Z,68.40
2023-02-17T22:47:08.713Z,67.97
2023-02-17T22:49:36.267Z,67.76
2023-02-17T22:52:04.345Z,67.47
2023-02-17T22:54:34.814Z,67.44
2023-02-17T22:57:05.812Z,67.49
2023-02-17T22:59:35.956Z,67.45
2023-02-17T23:02:03.292Z,67.82
2023-02-17T23:04:32.089Z,67.87
2023-02-17T23:06:59.741Z,67.90
2023-02-17T23:09:26.938Z,68.10
2023-02-17T23:11:54.580Z,68.07
2023-02-17T23:14:34.347Z,67.95
2023-02-17T23:17:11.280Z,67.86
2023-02-17T23:19:40.774Z,67.85
2023-02-17T23:22:12.144Z,67.69
2023-02-17T23:24:42.411Z,67.58
2023-02-17T23:27:10.587Z,67.54
2023-02-17T23:29:39.580Z,67.54
2023-02-17T23:32:10.723Z,67.47
2023-02-17T23:34:38.855Z,67.08
2023-02-17T23:37:15.812Z,67.37
2023-02-17T23:39:59.988Z,67.58
2023-02-17T23:42:49.566Z,67.78
2023-02-17T23:45:18.252Z,67.88
2023-02-17T23:47:51.852Z,67.93
2023-02-17T23:50:19.558Z,67.78
2023-02-17T23:52:47.532Z,67.83
2023-02-17T23:55:15.805Z,68.02
2023-02-17T23:57:43.057Z,68.11
